createdAt,value
2023-02-19T00:02:18.517Z,66.66
2023-02-19T00:04:45.761Z,66.60
2023-02-19T00:07:12.971Z,66.71
2023-02-19T00:09:40.177Z,66.92
2023-02-19T00:12:07.383Z,66.95
2023-02-19T00:14:34.596Z,66.79
2023-02-19T00:17:01.740Z,67.04
2023-02-19T00:19:28.876Z,67.32
2023-02-19T00:21:55.918Z,67.34
2023-02-19T00:24:23.148Z,67.43
2023-02-19T00:26:50.253Z,67.20
2023-02-19T00:29:21.774Z,67.43
2023-02-19T00:31:49.651Z,67.40
2023-02-19T00:34:17.024Z,67.47
2023-02-19T00:36:44.234Z,67.52
2023-02-19T00:39:15.969Z,67.57
2023-02-19T00:41:43.795Z,67.77
2023-02-19T00:44:12.335Z,67.97
2023-02-19T00:46:48.360Z,67.89
2023-02-19T00:49:23.752Z,67.81
2023-02-19T00:51:53.196Z,68.07
2023-02-19T00:54:22.719Z,68.12
2023-02-19T00:56:50.393Z,67.97
2023-02-19T00:59:17.962Z,68.11
2023-02-19T01:01:45.454Z,67.87
2023-02-19T01:04:13.149Z,67.88
2023-02-19T01:06:41.479Z,67.79
2023-02-19T01:09:08.616Z,67.74
2023-02-19T01:11:35.956Z,67.86
2023-02-19T01:14:04.154Z,67.75
2023-02-19T01:16:31.749Z,67.78
2023-02-19T01:18:59.352Z,67.81
2023-02-19T01:21:28.591Z,67.74
2023-02-19T01:23:57.263Z,68.05
2023-02-19T01:26:29.681Z,67.89
2023-02-19T01:28:57.642Z,67.77
2023-02-19T01:31:25.872Z,67.79
2023-02-19T01:33:56.850Z,67.70
2023-02-19T01:36:24.304Z,67.70
2023-02-19T01:38:51.625Z,67.64
2023-02-19T01:41:24.457Z,67.48
2023-02-19T01:44:00.530Z,67.62
2023-02-19T01:46:35.713Z,67.79
2023-02-19T01:49:12.176Z,67.95
2023-02-19T01:51:45.087Z,68.05
2023-02-19T01:54:15.488Z,68.45
2023-02-19T01:56:45.436Z,68.62
2023-02-19T01:59:13.407Z,68.57
2023-02-19T02:01:41.619Z,68.49
2023-02-19T02:04:12.908Z,68.34
2023-02-19T02:06:48.326Z,68.68
2023-02-19T02:09:37.534Z,68.36
2023-02-19T02:12:05.102Z,68.26
2023-02-19T02:14:37.171Z,68.17
2023-02-19T02:17:13.832Z,67.93
2023-02-19T02:20:14.789Z,68.23
2023-02-19T02:23:16.832Z,67.94
2023-02-19T02:25:50.313Z,67.63
2023-02-19T02:28:51.761Z,67.71
2023-02-19T02:31:25.854Z,68.19
2023-02-19T02:34:07.712Z,67.93
2023-02-19T02:36:42.681Z,67.96
2023-02-19T02:39:17.498Z,67.82
2023-02-19T02:41:49.522Z,68.12
2023-02-19T02:44:16.721Z,67.86
2023-02-19T02:46:46.450Z,67.95
2023-02-19T02:49:20.329Z,67.94
2023-02-19T02:51:53.250Z,68.28
2023-02-19T02:54:48.510Z,68.78
2023-02-19T02:57:19.364Z,68.86
2023-02-19T02:59:54.178Z,68.50
2023-02-19T03:02:27.629Z,68.42
2023-02-19T03:05:22.632Z,68.73
2023-02-19T03:07:59.699Z,69.60
2023-02-19T03:10:30.412Z,71.38
2023-02-19T03:13:20.270Z,72.69
2023-02-19T03:16:11.561Z,74.35
2023-02-19T03:19:01.495Z,75.67
2023-02-19T03:21:29.558Z,76.40
2023-02-19T03:24:16.625Z,76.94
2023-02-19T03:26:45.939Z,77.55
2023-02-19T03:29:24.022Z,77.92
2023-02-19T03:31:58.100Z,78.13
2023-02-19T03:34:37.112Z,77.92
2023-02-19T03:37:12.650Z,77.83
2023-02-19T03:39:44.832Z,78.84
2023-02-19T03:42:33.433Z,77.61
2023-02-19T03:45:01.826Z,79.62
2023-02-19T03:47:53.449Z,79.85
2023-02-19T03:50:29.982Z,79.79
2023-02-19T03:53:24.679Z,79.05
2023-02-19T03:56:16.595Z,78.95
2023-02-19T03:58:53.847Z,78.84
2023-02-19T04:01:30.618Z,79.03
2023-02-19T04:04:04.813Z,79.20
2023-02-19T04:06:34.529Z,78.32
2023-02-19T04:09:06.268Z,79.13
2023-02-19T04:11:33.984Z,79.05
2023-02-19T04:14:52.912Z,78.96
2023-02-19T04:17:28.676Z,79.03
2023-02-19T04:19:58.144Z,78.83
2023-02-19T04:22:26.560Z,79.14
2023-02-19T04:24:55.861Z,79.25
2023-02-19T04:27:22.944Z,79.46
2023-02-19T04:29:50.120Z,78.65
2023-02-19T04:32:17.398Z,78.09
2023-02-19T04:34:44.655Z,78.64
2023-02-19T04:37:11.863Z,78.55
2023-02-19T04:39:39.038Z,78.65
2023-02-19T04:42:06.180Z,78.19
2023-02-19T04:44:34.815Z,77.83
2023-02-19T04:47:02.157Z,78.08
2023-02-19T04:49:29.341Z,78.10
2023-02-19T04:51:56.456Z,78.02
2023-02-19T04:54:23.662Z,78.26
2023-02-19T04:56:51.058Z,78.05
2023-02-19T04:59:18.257Z,77.88
2023-02-19T05:01:45.406Z,77.88
2023-02-19T05:04:12.626Z,77.92
2023-02-19T05:06:39.838Z,77.84
2023-02-19T05:09:06.936Z,77.56
2023-02-19T05:11:34.136Z,77.61
2023-02-19T05:14:01.650Z,77.44
2023-02-19T05:16:28.768Z,77.29
2023-02-19T05:18:55.920Z,77.56
2023-02-19T05:21:23.095Z,77.77
2023-02-19T05:23:50.206Z,77.70
2023-02-19T05:26:20.985Z,77.78
2023-02-19T05:28:50.493Z,77.57
2023-02-19T05:31:18.677Z,77.51
2023-02-19T05:33:50.451Z,77.47
2023-02-19T05:36:19.048Z,77.40
2023-02-19T05:38:46.447Z,77.53
2023-02-19T05:41:23.521Z,76.86
2023-02-19T05:43:50.876Z,77.38
2023-02-19T05:46:21.008Z,77.65
2023-02-19T05:48:49.843Z,77.71
2023-02-19T05:51:19.728Z,77.12
2023-02-19T05:53:47.700Z,77.68
2023-02-19T05:56:37.189Z,77.70
2023-02-19T05:59:25.157Z,77.83
2023-02-19T06:01:54.632Z,77.47
2023-02-19T06:04:22.030Z,77.88
2023-02-19T06:06:49.807Z,77.61
2023-02-19T06:09:17.160Z,77.03
2023-02-19T06:11:44.515Z,77.15
2023-02-19T06:14:14.430Z,77.52
2023-02-19T06:16:41.836Z,77.28
2023-02-19T06:19:09.534Z,77.44
2023-02-19T06:21:36.875Z,77.15
2023-02-19T06:24:08.543Z,76.67
2023-02-19T06:26:36.218Z,76.84
2023-02-19T06:29:03.663Z,77.09
2023-02-19T06:31:30.978Z,76.93
2023-02-19T06:33:58.098Z,76.85
2023-02-19T06:36:25.512Z,76.65
2023-02-19T06:38:52.774Z,76.57
2023-02-19T06:41:20.174Z,76.44
2023-02-19T06:43:47.440Z,76.59
2023-02-19T06:46:15.274Z,76.50
2023-02-19T06:48:45.581Z,76.05
2023-02-19T06:51:15.485Z,76.37
2023-02-19T06:53:42.684Z,76.14
2023-02-19T06:56:25.369Z,76.05
2023-02-19T06:58:57.884Z,75.69
2023-02-19T07:01:25.109Z,75.33
2023-02-19T07:03:55.317Z,75.38
2023-02-19T07:06:24.086Z,75.02
2023-02-19T07:08:53.106Z,75.03
2023-02-19T07:11:20.438Z,76.31
2023-02-19T07:13:47.860Z,76.50
2023-02-19T07:16:15.601Z,75.93
2023-02-19T07:18:42.737Z,75.94
2023-02-19T07:21:14.605Z,75.53
2023-02-19T07:23:42.505Z,76.39
2023-02-19T07:26:12.729Z,76.78
2023-02-19T07:28:47.787Z,78.02
2023-02-19T07:31:17.019Z,77.46
2023-02-19T07:33:44.828Z,76.79
2023-02-19T07:36:13.285Z,77.62
2023-02-19T07:38:40.414Z,77.50
2023-02-19T07:41:07.649Z,78.53
2023-02-19T07:43:37.058Z,77.58
2023-02-19T07:46:06.273Z,77.98
2023-02-19T07:48:35.193Z,77.70
2023-02-19T07:51:03.820Z,77.52
2023-02-19T07:53:31.417Z,78.11
2023-02-19T07:56:03.951Z,77.66
2023-02-19T07:58:31.774Z,77.87
2023-02-19T08:01:43.622Z,77.61
2023-02-19T08:04:13.312Z,78.23
2023-02-19T08:06:41.314Z,78.35
2023-02-19T08:09:08.724Z,76.96
2023-02-19T08:11:54.505Z,76.06
2023-02-19T08:14:26.419Z,77.03
2023-02-19T08:16:54.092Z,77.32
2023-02-19T08:19:21.801Z,76.86
2023-02-19T08:21:49.025Z,77.19
2023-02-19T08:24:16.497Z,76.75
2023-02-19T08:26:43.583Z,75.16
2023-02-19T08:29:10.716Z,74.18
2023-02-19T08:31:38.383Z,73.97
2023-02-19T08:34:05.681Z,72.12
2023-02-19T08:36:32.901Z,68.19
2023-02-19T08:38:59.989Z,64.56
2023-02-19T08:41:27.301Z,60.53
2023-02-19T08:43:54.438Z,58.92
2023-02-19T08:46:23.135Z,57.85
2023-02-19T08:48:50.512Z,58.69
2023-02-19T08:51:17.680Z,58.79
2023-02-19T08:53:44.830Z,59.38
2023-02-19T08:56:14.862Z,59.21
2023-02-19T08:58:42.810Z,60.42
2023-02-19T09:01:13.258Z,60.84
2023-02-19T09:03:41.274Z,60.98
2023-02-19T09:06:11.660Z,62.27
2023-02-19T09:08:38.899Z,62.06
2023-02-19T09:11:07.806Z,61.37
2023-02-19T09:13:34.907Z,59.96
2023-02-19T09:16:04.299Z,57.60
2023-02-19T09:18:31.844Z,55.98
2023-02-19T09:21:05.075Z,54.88
2023-02-19T09:23:36.469Z,55.71
2023-02-19T09:26:09.083Z,56.69
2023-02-19T09:28:36.389Z,56.82
2023-02-19T09:31:07.851Z,56.36
2023-02-19T09:33:35.245Z,53.87
2023-02-19T09:36:02.768Z,50.37
2023-02-19T09:38:31.439Z,46.38
2023-02-19T09:40:59.408Z,42.50
2023-02-19T09:43:29.975Z,38.13
2023-02-19T09:46:10.351Z,39.42
2023-02-19T09:48:37.549Z,37.80
2023-02-19T09:51:05.474Z,38.81
2023-02-19T09:53:42.159Z,39.60
2023-02-19T09:56:09.971Z,40.79
2023-02-19T09:58:48.485Z,41.01
2023-02-19T10:01:16.017Z,42.35
2023-02-19T10:03:48.567Z,42.78
2023-02-19T10:06:24.134Z,42.76
2023-02-19T10:08:56.391Z,43.60
2023-02-19T10:11:26.088Z,42.83
2023-02-19T10:14:17.608Z,42.79
2023-02-19T10:16:46.814Z,43.07
2023-02-19T10:19:14.900Z,42.17
2023-02-19T10:21:42.948Z,42.52
2023-02-19T10:24:20.296Z,43.26
2023-02-19T10:26:47.881Z,43.46
2023-02-19T10:29:14.929Z,43.50
2023-02-19T10:31:42.261Z,43.64
2023-02-19T10:34:19.697Z,43.70
2023-02-19T10:36:51.204Z,44.44
2023-02-19T10:39:23.911Z,44.34
2023-02-19T10:41:51.738Z,43.51
2023-02-19T10:44:24.474Z,44.72
2023-02-19T10:46:53.105Z,43.53
2023-02-19T10:49:35.817Z,43.95
2023-02-19T10:52:24.700Z,44.65
2023-02-19T10:55:28.640Z,44.38
2023-02-19T10:57:57.199Z,44.18
2023-02-19T11:00:27.584Z,43.83
2023-02-19T11:03:21.899Z,43.97
2023-02-19T11:06:02.605Z,43.54
2023-02-19T11:08:31.163Z,44.68
2023-02-19T11:10:58.307Z,45.37
2023-02-19T11:13:33.320Z,44.96
2023-02-19T11:16:00.660Z,47.06
2023-02-19T11:18:36.432Z,45.94
2023-02-19T11:21:06.717Z,46.31
2023-02-19T11:23:44.575Z,46.30
2023-02-19T11:26:23.102Z,46.93
2023-02-19T11:28:58.775Z,47.35
2023-02-19T11:31:29.798Z,48.20
2023-02-19T11:34:00.072Z,48.38
2023-02-19T11:36:35.365Z,48.72
2023-02-19T11:39:28.153Z,49.19
2023-02-19T11:42:12.789Z,48.97
2023-02-19T11:44:58.240Z,48.98
2023-02-19T11:47:56.231Z,49.13
2023-02-19T11:50:38.330Z,49.05
2023-02-19T11:53:15.152Z,48.65
2023-02-19T11:55:54.172Z,48.57
2023-02-19T11:58:27.166Z,48.74
2023-02-19T12:01:29.148Z,50.22
2023-02-19T12:04:03.067Z,52.30
2023-02-19T12:06:56.438Z,52.32
2023-02-19T12:09:50.833Z,52.50
2023-02-19T12:12:36.149Z,51.72
2023-02-19T12:15:11.518Z,52.25
2023-02-19T12:17:48.315Z,51.84
2023-02-19T12:20:22.130Z,51.91
2023-02-19T12:23:10.812Z,52.04
2023-02-19T12:25:44.096Z,50.98
2023-02-19T12:28:39.850Z,50.90
2023-02-19T12:31:28.901Z,51.11
2023-02-19T12:34:21.447Z,50.96
2023-02-19T12:37:19.406Z,51.00
2023-02-19T12:40:17.117Z,51.86
2023-02-19T12:42:54.315Z,52.22
2023-02-19T12:45:35.922Z,52.21
2023-02-19T12:48:08.635Z,55.51
2023-02-19T12:50:36.084Z,54.79
2023-02-19T12:53:10.554Z,54.17
2023-02-19T12:55:45.261Z,53.60
2023-02-19T12:58:28.642Z,54.10
2023-02-19T13:01:00.261Z,53.06
2023-02-19T13:03:39.742Z,54.24
2023-02-19T13:06:40.743Z,52.79
2023-02-19T13:09:55.061Z,52.07
2023-02-19T13:12:27.170Z,52.52
2023-02-19T13:15:04.376Z,52.34
2023-02-19T13:17:41.953Z,52.73
2023-02-19T13:20:31.285Z,53.72
2023-02-19T13:23:30.312Z,52.01
2023-02-19T13:26:34.696Z,51.83
2023-02-19T13:29:32.587Z,51.62
2023-02-19T13:32:17.483Z,52.08
2023-02-19T13:35:22.005Z,52.83
2023-02-19T13:37:50.274Z,53.01
2023-02-19T13:40:35.229Z,53.89
2023-02-19T13:43:08.184Z,54.27
2023-02-19T13:45:42.790Z,55.25
2023-02-19T13:48:33.360Z,55.30
2023-02-19T13:51:19.082Z,55.29
2023-02-19T13:53:46.153Z,55.64
2023-02-19T13:56:31.769Z,56.16
2023-02-19T13:59:02.779Z,55.77
2023-02-19T14:01:54.510Z,55.79
2023-02-19T14:04:41.690Z,55.84
2023-02-19T14:07:08.726Z,55.28
2023-02-19T14:09:41.655Z,55.19
2023-02-19T14:12:12.611Z,55.37
2023-02-19T14:14:51.771Z,55.90
2023-02-19T14:17:35.879Z,55.36
2023-02-19T14:20:24.278Z,56.44
2023-02-19T14:23:02.077Z,55.70
2023-02-19T14:25:32.195Z,55.77
2023-02-19T14:28:06.425Z,56.04
2023-02-19T14:30:40.400Z,57.41
2023-02-19T14:33:11.435Z,55.98
2023-02-19T14:35:43.194Z,57.13
2023-02-19T14:38:46.608Z,57.06
2023-02-19T14:41:16.459Z,57.93
2023-02-19T14:43:47.117Z,56.77
2023-02-19T14:46:32.060Z,57.24
2023-02-19T14:49:13.364Z,57.49
2023-02-19T14:51:44.541Z,57.04
2023-02-19T14:54:41.046Z,57.64
2023-02-19T14:57:15.730Z,56.93
2023-02-19T14:59:54.634Z,56.73
2023-02-19T15:02:21.918Z,56.95
2023-02-19T15:04:49.184Z,57.53
2023-02-19T15:07:30.148Z,57.39
2023-02-19T15:10:05.759Z,57.30
2023-02-19T15:12:45.060Z,58.13
2023-02-19T15:15:43.073Z,57.55
2023-02-19T15:18:23.932Z,57.83
2023-02-19T15:20:58.495Z,57.99
2023-02-19T15:23:27.016Z,58.52
2023-02-19T15:25:54.531Z,58.38
2023-02-19T15:28:24.345Z,58.20
2023-02-19T15:31:07.884Z,57.87
2023-02-19T15:33:35.590Z,57.98
2023-02-19T15:36:09.521Z,58.29
2023-02-19T15:38:37.183Z,58.37
2023-02-19T15:41:05.242Z,58.86
2023-02-19T15:43:35.078Z,58.75
2023-02-19T15:46:11.077Z,58.58
2023-02-19T15:48:49.341Z,58.83
2023-02-19T15:51:22.950Z,59.04
2023-02-19T15:53:57.443Z,59.90
2023-02-19T15:56:32.763Z,59.86
2023-02-19T15:59:05.976Z,60.17
2023-02-19T16:01:38.236Z,59.88
2023-02-19T16:04:12.968Z,60.01
2023-02-19T16:06:55.782Z,60.52
2023-02-19T16:09:33.854Z,60.86
2023-02-19T16:12:02.716Z,60.91
2023-02-19T16:14:35.615Z,60.59
2023-02-19T16:17:11.750Z,61.90
2023-02-19T16:19:58.069Z,61.44
2023-02-19T16:22:29.360Z,62.30
2023-02-19T16:25:03.341Z,63.83
2023-02-19T16:27:36.198Z,63.68
2023-02-19T16:30:26.137Z,64.78
2023-02-19T16:33:32.384Z,66.17
2023-02-19T16:36:16.339Z,66.26
2023-02-19T16:39:10.556Z,66.88
2023-02-19T16:42:02.530Z,66.83
2023-02-19T16:44:35.892Z,67.37
2023-02-19T16:47:07.799Z,67.40
2023-02-19T16:49:34.901Z,67.65
2023-02-19T16:52:04.551Z,68.51
2023-02-19T16:54:31.977Z,67.99
2023-02-19T16:56:59.004Z,68.01
2023-02-19T16:59:26.170Z,68.32
2023-02-19T17:01:53.400Z,68.43
2023-02-19T17:04:20.629Z,67.83
2023-02-19T17:06:47.853Z,67.91
2023-02-19T17:09:14.985Z,67.94
2023-02-19T17:11:42.180Z,67.60
2023-02-19T17:14:09.580Z,67.88
2023-02-19T17:16:40.571Z,67.15
2023-02-19T17:19:19.683Z,67.83
2023-02-19T17:21:47.269Z,67.52
2023-02-19T17:24:15.086Z,67.65
2023-02-19T17:26:42.594Z,68.10
2023-02-19T17:29:14.319Z,68.35
2023-02-19T17:31:41.942Z,68.42
2023-02-19T17:34:09.298Z,68.86
2023-02-19T17:36:38.147Z,69.50
2023-02-19T17:39:08.828Z,69.52
2023-02-19T17:41:36.080Z,69.50
2023-02-19T17:44:03.193Z,69.78
2023-02-19T17:46:30.286Z,69.95
2023-02-19T17:48:57.477Z,69.74
2023-02-19T17:51:24.627Z,69.81
2023-02-19T17:53:51.696Z,69.77
2023-02-19T17:56:21.889Z,69.72
2023-02-19T17:58:49.006Z,70.04
2023-02-19T18:01:16.210Z,69.87
2023-02-19T18:03:43.866Z,69.98
2023-02-19T18:06:11.588Z,70.45
2023-02-19T18:08:39.162Z,70.06
2023-02-19T18:11:07.835Z,70.32
2023-02-19T18:13:34.938Z,70.20
2023-02-19T18:16:02.141Z,69.75
2023-02-19T18:18:30.533Z,70.05
2023-02-19T18:20:57.730Z,70.38
2023-02-19T18:23:24.816Z,70.56
2023-02-19T18:25:51.961Z,70.05
2023-02-19T18:28:19.078Z,70.00
2023-02-19T18:30:46.321Z,69.87
2023-02-19T18:33:13.659Z,70.33
2023-02-19T18:35:40.850Z,70.09
2023-02-19T18:38:08.151Z,69.97
2023-02-19T18:40:35.358Z,70.04
2023-02-19T18:43:02.468Z,70.55
2023-02-19T18:45:29.961Z,70.29
2023-02-19T18:47:56.993Z,70.51
2023-02-19T18:50:24.331Z,70.20
2023-02-19T18:52:51.901Z,70.23
2023-02-19T18:55:19.422Z,70.27
2023-02-19T18:57:47.438Z,70.02
2023-02-19T19:00:25.860Z,70.14
2023-02-19T19:02:59.860Z,70.05
2023-02-19T19:05:27.517Z,70.56
2023-02-19T19:07:59.592Z,70.97
2023-02-19T19:10:27.429Z,69.88
2023-02-19T19:12:54.590Z,70.10
2023-02-19T19:15:22.301Z,70.21
2023-02-19T19:17:49.641Z,70.61
2023-02-19T19:20:19.586Z,70.18
2023-02-19T19:22:50.043Z,70.02
2023-02-19T19:25:17.403Z,70.24
2023-02-19T19:27:44.524Z,70.24
2023-02-19T19:30:12.574Z,70.18
2023-02-19T19:32:40.198Z,70.37
2023-02-19T19:35:07.634Z,70.31
2023-02-19T19:37:34.763Z,70.24
2023-02-19T19:40:04.192Z,70.29
2023-02-19T19:42:31.326Z,70.12
2023-02-19T19:44:58.420Z,70.28
2023-02-19T19:47:25.663Z,69.96
2023-02-19T19:49:53.042Z,70.33
2023-02-19T19:52:20.262Z,70.02
2023-02-19T19:54:47.420Z,69.85
2023-02-19T19:57:16.458Z,70.40
2023-02-19T19:59:43.530Z,69.88
2023-02-19T20:02:11.672Z,69.64
2023-02-19T20:04:38.773Z,70.27
2023-02-19T20:07:06.581Z,70.26
2023-02-19T20:09:34.033Z,69.82
2023-02-19T20:12:02.390Z,69.98
2023-02-19T20:14:29.426Z,70.19
2023-02-19T20:16:57.558Z,69.85
2023-02-19T20:19:24.621Z,70.17
2023-02-19T20:21:53.974Z,69.87
2023-02-19T20:24:24.849Z,70.36
2023-02-19T20:26:54.339Z,69.72
2023-02-19T20:29:21.426Z,69.49
2023-02-19T20:31:52.030Z,69.94
2023-02-19T20:34:19.512Z,70.26
2023-02-19T20:36:48.362Z,69.92
2023-02-19T20:39:17.004Z,70.30
2023-02-19T20:41:51.320Z,70.08
2023-02-19T20:44:19.604Z,70.91
2023-02-19T20:46:49.607Z,69.91
2023-02-19T20:49:19.193Z,70.29
2023-02-19T20:51:55.677Z,70.29
2023-02-19T20:54:26.527Z,70.08
2023-02-19T20:56:55.929Z,70.06
2023-02-19T20:59:31.268Z,70.27
2023-02-19T21:02:00.209Z,70.27
2023-02-19T21:04:27.831Z,70.45
2023-02-19T21:06:55.161Z,70.52
2023-02-19T21:09:23.573Z,70.55
2023-02-19T21:11:51.717Z,70.58
2023-02-19T21:14:20.699Z,70.93
2023-02-19T21:16:48.602Z,70.67
2023-02-19T21:19:15.751Z,71.00
2023-02-19T21:21:42.892Z,70.82
2023-02-19T21:24:13.250Z,70.52
2023-02-19T21:26:41.910Z,71.09
2023-02-19T21:29:14.169Z,71.40
2023-02-19T21:31:47.621Z,71.36
2023-02-19T21:34:18.362Z,70.71
2023-02-19T21:36:46.352Z,70.82
2023-02-19T21:39:16.199Z,70.85
2023-02-19T21:41:43.416Z,70.72
2023-02-19T21:44:10.752Z,70.69
2023-02-19T21:46:38.233Z,70.93
2023-02-19T21:49:05.788Z,70.84
2023-02-19T21:51:36.100Z,70.58
2023-02-19T21:54:04.309Z,70.45
2023-02-19T21:56:36.098Z,70.47
2023-02-19T21:59:03.861Z,70.65
2023-02-19T22:01:34.764Z,70.27
2023-02-19T22:04:02.245Z,70.72
2023-02-19T22:06:31.438Z,70.04
2023-02-19T22:08:59.790Z,70.47
2023-02-19T22:11:27.179Z,70.37
2023-02-19T22:13:54.668Z,69.97
2023-02-19T22:16:22.257Z,70.39
2023-02-19T22:18:59.370Z,70.39
2023-02-19T22:21:32.549Z,70.06
2023-02-19T22:24:02.412Z,70.68
2023-02-19T22:26:36.333Z,70.11
2023-02-19T22:29:07.481Z,70.35
2023-02-19T22:31:35.572Z,70.66
2023-02-19T22:34:03.577Z,70.54
2023-02-19T22:36:33.490Z,70.74
2023-02-19T22:39:01.632Z,70.42
2023-02-19T22:41:29.242Z,70.47
2023-02-19T22:43:58.254Z,70.53
2023-02-19T22:46:28.483Z,70.33
2023-02-19T22:48:55.605Z,70.56
2023-02-19T22:51:24.146Z,70.61
2023-02-19T22:53:56.925Z,70.38
2023-02-19T22:56:26.887Z,70.48
2023-02-19T22:58:56.063Z,70.36
2023-02-19T23:01:24.194Z,70.34
2023-02-19T23:04:01.552Z,70.38
2023-02-19T23:06:31.867Z,70.56
2023-02-19T23:09:02.588Z,70.30
2023-02-19T23:11:32.714Z,70.43
2023-02-19T23:13:59.880Z,70.41
2023-02-19T23:16:27.221Z,70.77
2023-02-19T23:18:55.680Z,69.89
2023-02-19T23:21:23.780Z,70.10
2023-02-19T23:23:50.967Z,69.92
2023-02-19T23:26:18.647Z,70.32
2023-02-19T23:28:46.398Z,70.62
2023-02-19T23:31:14.546Z,70.71
2023-02-19T23:33:43.125Z,70.31
2023-02-19T23:36:14.020Z,70.66
2023-02-19T23:38:45.529Z,70.33
2023-02-19T23:41:14.388Z,70.65
2023-02-19T23:43:42.096Z,70.97
2023-02-19T23:46:10.513Z,69.67
2023-02-19T23:48:37.856Z,69.91
2023-02-19T23:51:05.125Z,69.81
2023-02-19T23:53:32.334Z,70.58
2023-02-19T23:55:59.534Z,70.76
2023-02-19T23:58:26.665Z,70.04
